Time;durP1;ratioP1;P1;durP2;ratioP2;P2;SDS_P1;SDS_P2;PMS_P1;PMS_P2;Temp;Humidity;BMP_temperature;BMP_pressure;BME280_temperature;BME280_humidity;BME280_pressure;Samples;Min_cycle;Max_cycle;Signal;HPM_P1;HPM_P2
2021/08/04 00:01:15;;;;;;;1.10;1.00;;;24.50;45.00;;;;;;5011028;28;20298;-68
2021/08/04 00:03:41;;;;;;;1.20;1.10;;;24.50;45.00;;;;;;5010447;28;20287;-68
2021/08/04 00:06:08;;;;;;;1.17;0.90;;;24.50;45.00;;;;;;5009917;28;20297;-68
2021/08/04 00:08:34;;;;;;;1.23;1.10;;;24.50;45.00;;;;;;5010013;28;20263;-68
2021/08/04 00:11:01;;;;;;;1.65;1.23;;;24.50;45.00;;;;;;5009954;28;20290;-68
2021/08/04 00:13:27;;;;;;;1.20;1.10;;;24.50;45.00;;;;;;5011244;28;20199;-68
2021/08/04 00:15:54;;;;;;;0.98;0.98;;;24.50;45.00;;;;;;5009565;28;20323;-68
2021/08/04 00:18:20;;;;;;;1.50;1.40;;;24.50;45.00;;;;;;5011340;28;20294;-68
2021/08/04 00:20:47;;;;;;;0.90;0.90;;;24.50;45.00;;;;;;5010071;28;20230;-68
2021/08/04 00:23:13;;;;;;;1.52;1.42;;;24.50;45.00;;;;;;5011462;28;20617;-68
2021/08/04 00:25:40;;;;;;;1.20;1.02;;;24.50;45.00;;;;;;5007150;28;20451;-68
2021/08/04 00:28:06;;;;;;;1.25;1.15;;;24.50;45.00;;;;;;5003919;28;20317;-68
2021/08/04 00:30:33;;;;;;;1.40;1.30;;;24.50;45.00;;;;;;5010960;28;20298;-68
2021/08/04 00:32:59;;;;;;;1.60;1.20;;;24.50;45.00;;;;;;5010261;28;20278;-68
2021/08/04 00:35:26;;;;;;;1.80;1.25;;;24.50;45.00;;;;;;5010308;28;20287;-68
2021/08/04 00:37:52;;;;;;;3.13;1.17;;;24.50;45.00;;;;;;5009741;28;20647;-68
2021/08/04 00:40:18;;;;;;;1.40;1.30;;;24.40;44.90;;;;;;5010456;28;20365;-69
2021/08/04 00:42:45;;;;;;;1.20;1.10;;;24.50;45.00;;;;;;5010252;28;20293;-69
2021/08/04 00:45:11;;;;;;;1.00;0.90;;;24.50;45.00;;;;;;5010168;28;20290;-69
2021/08/04 00:47:38;;;;;;;1.52;1.10;;;24.50;45.00;;;;;;5009267;28;20455;-69
2021/08/04 00:50:04;;;;;;;1.20;1.10;;;24.50;45.00;;;;;;5011127;28;20631;-69
2021/08/04 00:52:31;;;;;;;1.30;1.10;;;24.50;45.00;;;;;;5009670;28;20279;-68
2021/08/04 00:54:57;;;;;;;1.23;1.10;;;24.50;45.00;;;;;;5010341;28;20203;-68
2021/08/04 00:57:24;;;;;;;1.02;1.00;;;24.50;45.00;;;;;;5010297;28;20270;-69
2021/08/04 00:59:50;;;;;;;1.58;1.02;;;24.50;45.00;;;;;;5011052;28;20238;-68
2021/08/04 01:02:17;;;;;;;1.25;1.10;;;24.50;45.00;;;;;;5010317;28;20760;-69
2021/08/04 01:04:43;;;;;;;1.38;1.27;;;24.50;45.00;;;;;;5010783;28;20290;-69
2021/08/04 01:07:10;;;;;;;1.30;1.20;;;24.50;45.00;;;;;;5009185;28;20230;-68
2021/08/04 01:09:36;;;;;;;1.70;1.13;;;24.50;45.00;;;;;;5011266;28;20286;-69
2021/08/04 01:12:02;;;;;;;1.48;1.27;;;24.40;44.90;;;;;;5009954;28;20298;-68
2021/08/04 01:14:29;;;;;;;1.27;0.98;;;24.50;45.00;;;;;;5012868;28;20250;-68
2021/08/04 01:16:55;;;;;;;1.88;1.00;;;24.40;44.80;;;;;;5012800;28;20259;-68
2021/08/04 01:19:22;;;;;;;1.10;1.10;;;24.50;45.00;;;;;;5014225;28;20615;-68
2021/08/04 01:21:48;;;;;;;1.20;1.10;;;24.40;44.90;;;;;;5012588;28;20306;-68
2021/08/04 01:24:15;;;;;;;0.85;0.85;;;24.50;45.00;;;;;;5013424;28;20237;-69
2021/08/04 01:26:41;;;;;;;1.30;1.20;;;24.40;44.80;;;;;;5011950;28;20302;-69
2021/08/04 01:29:08;;;;;;;1.30;1.20;;;24.50;45.00;;;;;;5012911;28;20694;-69
2021/08/04 01:31:35;;;;;;;1.42;1.30;;;24.50;45.00;;;;;;5001535;28;20656;-68
2021/08/04 01:34:01;;;;;;;1.13;1.02;;;24.50;45.00;;;;;;5014199;28;20290;-69
2021/08/04 01:36:28;;;;;;;1.38;1.05;;;24.50;45.00;;;;;;5011790;28;20821;-68
2021/08/04 01:38:55;;;;;;;2.72;1.20;;;24.50;44.90;;;;;;5014067;28;20234;-68
2021/08/04 01:41:21;;;;;;;0.90;0.90;;;24.40;44.90;;;;;;5013099;28;20277;-68
2021/08/04 01:43:48;;;;;;;1.42;1.10;;;24.50;44.90;;;;;;5012577;28;20207;-68
2021/08/04 01:46:14;;;;;;;1.17;1.08;;;24.50;45.00;;;;;;5011412;28;20227;-68
2021/08/04 01:48:41;;;;;;;1.30;1.08;;;24.50;45.00;;;;;;5004875;28;20229;-68
2021/08/04 01:51:08;;;;;;;1.23;1.00;;;24.40;44.90;;;;;;5012620;28;20298;-68
2021/08/04 01:53:34;;;;;;;1.38;1.00;;;24.50;45.00;;;;;;5013330;28;20207;-68
2021/08/04 01:56:01;;;;;;;1.10;1.10;;;24.40;44.90;;;;;;5012083;28;20309;-69
2021/08/04 01:58:27;;;;;;;1.40;1.30;;;24.40;44.90;;;;;;5012497;28;20294;-68
2021/08/04 02:00:54;;;;;;;1.00;1.00;;;24.40;44.90;;;;;;5013412;28;20290;-68
2021/08/04 02:03:20;;;;;;;1.52;1.27;;;24.40;44.90;;;;;;5011319;28;20717;-68
2021/08/04 02:05:47;;;;;;;1.38;1.00;;;24.50;45.00;;;;;;5008620;28;20254;-69
2021/08/04 02:08:13;;;;;;;1.30;1.20;;;24.50;45.00;;;;;;5011732;28;20321;-69
2021/08/04 02:10:40;;;;;;;1.05;0.98;;;24.50;45.00;;;;;;5012349;28;20199;-69
2021/08/04 02:13:07;;;;;;;1.20;1.10;;;24.40;44.90;;;;;;5010642;28;20207;-68
2021/08/04 02:15:33;;;;;;;1.40;1.30;;;24.50;45.00;;;;;;5011709;28;20330;-68
2021/08/04 02:18:00;;;;;;;1.10;1.00;;;24.40;44.90;;;;;;5012202;28;20290;-65
2021/08/04 02:20:26;;;;;;;0.90;0.90;;;24.40;44.90;;;;;;5013104;28;20290;-66
2021/08/04 02:22:52;;;;;;;1.00;1.00;;;24.40;44.90;;;;;;5013272;28;20733;-66
2021/08/04 02:25:19;;;;;;;1.00;1.00;;;24.40;44.90;;;;;;5010782;28;20234;-66
2021/08/04 02:27:45;;;;;;;1.20;1.10;;;24.50;45.00;;;;;;5006017;28;20323;-65
2021/08/04 02:30:12;;;;;;;1.20;1.00;;;24.50;45.00;;;;;;5011611;28;20290;-66
2021/08/04 02:32:38;;;;;;;1.30;1.20;;;24.40;44.90;;;;;;5011788;28;20302;-66
2021/08/04 02:35:05;;;;;;;1.08;1.00;;;24.40;44.90;;;;;;5012894;28;20633;-66
2021/08/04 02:37:31;;;;;;;1.40;1.30;;;24.50;45.00;;;;;;5011119;28;20294;-66
2021/08/04 02:39:58;;;;;;;1.25;1.15;;;24.40;45.00;;;;;;5012741;28;20295;-66
2021/08/04 02:42:24;;;;;;;1.10;1.10;;;24.40;44.90;;;;;;5011491;28;20269;-66
2021/08/04 02:44:51;;;;;;;1.27;1.17;;;24.50;45.00;;;;;;5012913;28;20199;-66
2021/08/04 02:47:17;;;;;;;0.95;0.95;;;24.50;45.00;;;;;;5011069;28;20229;-66
2021/08/04 02:49:44;;;;;;;0.90;0.90;;;24.50;45.00;;;;;;5012078;28;20798;-66
2021/08/04 02:52:10;;;;;;;1.15;1.10;;;24.50;45.20;;;;;;5011811;28;20293;-66
2021/08/04 02:54:37;;;;;;;1.95;1.25;;;24.50;45.30;;;;;;5012588;28;20245;-67
2021/08/04 02:57:04;;;;;;;1.90;1.23;;;24.50;45.30;;;;;;5010662;28;20238;-68
2021/08/04 02:59:30;;;;;;;1.40;1.30;;;24.40;45.20;;;;;;5011181;28;20306;-68
2021/08/04 03:01:57;;;;;;;0.90;0.90;;;24.40;45.20;;;;;;5011556;28;20754;-68
2021/08/04 03:04:23;;;;;;;1.00;1.00;;;24.50;45.30;;;;;;5012354;28;20226;-68
2021/08/04 03:06:50;;;;;;;1.20;1.10;;;24.50;45.40;;;;;;5011107;28;20319;-68
2021/08/04 03:09:16;;;;;;;1.35;1.17;;;24.50;45.30;;;;;;5010866;28;20251;-68
2021/08/04 03:11:43;;;;;;;1.58;1.10;;;24.40;45.20;;;;;;5011600;28;20290;-67
2021/08/04 03:14:09;;;;;;;1.13;1.13;;;24.50;45.30;;;;;;5010712;28;20612;-67
2021/08/04 03:16:35;;;;;;;1.27;1.17;;;24.40;45.20;;;;;;5009909;28;20255;-68
2021/08/04 03:19:02;;;;;;;1.17;1.17;;;24.50;45.30;;;;;;5010285;28;20254;-67
2021/08/04 03:21:28;;;;;;;1.52;1.10;;;24.50;45.30;;;;;;5012021;28;20269;-68
2021/08/04 03:23:55;;;;;;;1.42;1.33;;;24.50;45.40;;;;;;5011377;28;20286;-68
2021/08/04 03:26:22;;;;;;;1.20;1.10;;;24.40;45.30;;;;;;5011898;28;20317;-67
2021/08/04 03:28:48;;;;;;;1.50;1.30;;;24.50;45.40;;;;;;5010569;28;20226;-67
2021/08/04 03:31:15;;;;;;;1.00;1.00;;;24.40;45.20;;;;;;5010731;28;20625;-67
2021/08/04 03:33:41;;;;;;;1.05;0.95;;;24.40;45.30;;;;;;5011028;28;20199;-67
2021/08/04 03:36:08;;;;;;;1.30;1.20;;;24.40;45.30;;;;;;5010212;28;20227;-67
2021/08/04 03:38:34;;;;;;;1.13;1.02;;;24.40;45.30;;;;;;5010593;28;20362;-68
2021/08/04 03:41:01;;;;;;;1.67;1.15;;;24.40;45.30;;;;;;5007692;28;20286;-67
2021/08/04 03:43:27;;;;;;;1.02;1.02;;;24.40;45.30;;;;;;5010995;28;20293;-67
2021/08/04 03:45:54;;;;;;;1.35;1.00;;;24.40;45.30;;;;;;5011197;28;20222;-67
2021/08/04 03:48:20;;;;;;;1.20;1.10;;;24.40;45.30;;;;;;5010977;28;20737;-67
2021/08/04 03:50:47;;;;;;;1.20;1.10;;;24.40;45.30;;;;;;5010279;28;20199;-68
2021/08/04 03:53:13;;;;;;;1.20;1.13;;;24.50;45.40;;;;;;5010227;28;20214;-68
2021/08/04 03:55:40;;;;;;;1.85;1.20;;;24.40;45.30;;;;;;5009486;28;20322;-68
2021/08/04 03:58:06;;;;;;;1.35;1.25;;;24.40;45.30;;;;;;5011595;28;20239;-67
2021/08/04 04:00:32;;;;;;;1.17;1.10;;;24.40;45.30;;;;;;5010050;28;20267;-67
2021/08/04 04:02:59;;;;;;;1.30;1.20;;;24.40;45.30;;;;;;5011114;28;20310;-67
2021/08/04 04:05:25;;;;;;;1.58;1.20;;;24.40;45.30;;;;;;5010718;28;20231;-67
2021/08/04 04:07:52;;;;;;;1.38;1.27;;;24.40;45.30;;;;;;5011237;28;20299;-68
2021/08/04 04:10:18;;;;;;;1.15;1.05;;;24.40;45.30;;;;;;5009315;28;20310;-69
2021/08/04 04:12:45;;;;;;;1.10;1.10;;;24.40;45.30;;;;;;5010533;28;20298;-69
2021/08/04 04:15:11;;;;;;;1.00;1.00;;;24.40;45.40;;;;;;5010301;28;20318;-67
2021/08/04 04:17:38;;;;;;;1.35;1.20;;;24.40;45.30;;;;;;5009471;28;20245;-68
2021/08/04 04:20:04;;;;;;;1.33;1.23;;;24.40;45.40;;;;;;5010277;28;20305;-67
2021/08/04 04:22:31;;;;;;;1.55;1.00;;;24.40;45.30;;;;;;5010010;28;20296;-67
2021/08/04 04:24:57;;;;;;;1.45;1.35;;;24.40;45.30;;;;;;5009734;28;20297;-67
2021/08/04 04:27:24;;;;;;;1.10;1.00;;;24.40;45.30;;;;;;5010618;28;20211;-68
2021/08/04 04:29:50;;;;;;;1.40;1.10;;;24.40;45.30;;;;;;5006761;28;20631;-68
2021/08/04 04:32:17;;;;;;;1.30;1.20;;;24.40;45.30;;;;;;5009144;28;20290;-68
2021/08/04 04:34:43;;;;;;;1.38;1.30;;;24.40;46.00;;;;;;5009875;28;20289;-68
2021/08/04 04:37:10;;;;;;;1.63;1.20;;;24.40;45.30;;;;;;5010106;28;20286;-68
2021/08/04 04:39:36;;;;;;;0.90;0.90;;;24.40;45.30;;;;;;5010097;28;20306;-68
2021/08/04 04:42:03;;;;;;;1.20;1.10;;;24.40;45.30;;;;;;5009888;28;20249;-68
2021/08/04 04:44:29;;;;;;;1.25;1.15;;;24.40;45.30;;;;;;5009758;28;20285;-68
2021/08/04 04:46:56;;;;;;;1.77;1.13;;;24.40;45.40;;;;;;5010755;28;20227;-68
2021/08/04 04:49:22;;;;;;;1.20;1.10;;;24.40;45.30;;;;;;5013863;28;20877;-68
2021/08/04 04:51:49;;;;;;;1.58;1.13;;;24.50;45.40;;;;;;5014058;28;20254;-68
2021/08/04 04:54:16;;;;;;;1.30;1.20;;;24.50;45.50;;;;;;5014042;28;20290;-67
2021/08/04 04:56:42;;;;;;;2.20;1.20;;;24.40;45.50;;;;;;5013174;28;20743;-68
2021/08/04 04:59:08;;;;;;;1.30;1.10;;;24.40;45.50;;;;;;5014480;28;20226;-68
2021/08/04 05:01:35;;;;;;;1.83;1.08;;;24.40;45.50;;;;;;5013791;28;20293;-68
2021/08/04 05:04:01;;;;;;;1.30;1.20;;;24.40;45.50;;;;;;5013072;28;20306;-68
2021/08/04 05:06:30;;;;;;;1.25;1.00;;;24.40;45.50;;;;;;5013064;28;20650;-68
2021/08/04 05:08:56;;;;;;;1.20;1.10;;;24.40;45.50;;;;;;5014077;28;20326;-68
2021/08/04 05:11:22;;;;;;;0.90;0.90;;;24.40;45.50;;;;;;5011509;28;20613;-68
2021/08/04 05:13:49;;;;;;;1.63;1.20;;;24.40;45.50;;;;;;5007432;28;20227;-70
2021/08/04 05:16:15;;;;;;;1.58;1.35;;;24.40;45.50;;;;;;5013058;28;20314;-67
2021/08/04 05:18:42;;;;;;;1.02;0.90;;;24.40;45.50;;;;;;5012520;28;20302;-67
2021/08/04 05:21:08;;;;;;;1.75;1.10;;;24.40;45.50;;;;;;5013349;28;20235;-67
2021/08/04 05:23:35;;;;;;;1.08;1.08;;;24.40;45.50;;;;;;5012623;28;20195;-68
2021/08/04 05:26:01;;;;;;;1.05;1.05;;;24.40;45.50;;;;;;5013548;28;20298;-68
2021/08/04 05:28:28;;;;;;;2.55;1.35;;;24.40;45.50;;;;;;5013932;28;20631;-68
2021/08/04 05:30:54;;;;;;;1.02;1.02;;;24.40;45.60;;;;;;5013895;28;20199;-68
2021/08/04 05:33:21;;;;;;;1.10;1.00;;;24.50;45.60;;;;;;5012427;28;20254;-68
2021/08/04 05:35:47;;;;;;;2.50;1.15;;;24.40;45.50;;;;;;5011135;28;20663;-67
2021/08/04 05:38:14;;;;;;;1.05;1.05;;;24.40;45.50;;;;;;5013639;28;20242;-68
2021/08/04 05:40:40;;;;;;;1.77;1.55;;;24.40;45.60;;;;;;5013610;28;20299;-70
2021/08/04 05:43:07;;;;;;;1.20;1.10;;;24.40;45.70;;;;;;5014027;28;20294;-68
2021/08/04 05:45:33;;;;;;;1.05;1.00;;;24.40;45.50;;;;;;5012035;28;20310;-68
2021/08/04 05:48:00;;;;;;;1.08;1.02;;;24.50;45.60;;;;;;5013745;28;20290;-67
2021/08/04 05:50:26;;;;;;;1.55;1.00;;;24.40;45.50;;;;;;5012655;28;20237;-67
2021/08/04 05:52:53;;;;;;;1.00;1.00;;;24.50;45.60;;;;;;5012942;28;22315;-68
2021/08/04 05:55:19;;;;;;;1.70;1.00;;;24.40;45.50;;;;;;5012826;28;20317;-68
2021/08/04 05:57:46;;;;;;;1.20;1.10;;;24.50;45.60;;;;;;5012243;28;20294;-68
2021/08/04 06:00:13;;;;;;;1.08;1.00;;;24.50;45.60;;;;;;5011461;28;20211;-68
2021/08/04 06:02:40;;;;;;;1.40;1.10;;;24.40;45.50;;;;;;5012602;28;20199;-68
2021/08/04 06:05:06;;;;;;;1.15;1.05;;;24.40;45.50;;;;;;5012816;28;20762;-67
2021/08/04 06:07:33;;;;;;;1.60;1.10;;;24.40;45.50;;;;;;5012494;28;20285;-68
2021/08/04 06:09:59;;;;;;;1.30;1.20;;;24.40;45.50;;;;;;5011768;28;20263;-68
2021/08/04 06:12:26;;;;;;;2.78;1.30;;;24.50;45.60;;;;;;5012455;28;20202;-68
2021/08/04 06:14:52;;;;;;;1.15;1.05;;;24.40;45.50;;;;;;5012150;28;20302;-68
2021/08/04 06:17:19;;;;;;;1.20;1.10;;;24.40;45.50;;;;;;5012614;28;20287;-68
2021/08/04 06:19:46;;;;;;;1.45;1.08;;;24.40;46.20;;;;;;5010253;28;20683;-68
2021/08/04 06:22:12;;;;;;;1.10;1.10;;;24.50;45.70;;;;;;5012835;28;20199;-68
2021/08/04 06:24:38;;;;;;;1.20;1.20;;;24.50;45.70;;;;;;5012239;28;20305;-68
2021/08/04 06:27:05;;;;;;;1.30;1.20;;;24.40;45.60;;;;;;5012395;28;20278;-68
2021/08/04 06:29:31;;;;;;;1.00;1.00;;;24.50;45.70;;;;;;5009988;28;20314;-68
2021/08/04 06:31:58;;;;;;;1.10;1.00;;;24.40;45.50;;;;;;5007296;28;20226;-68
2021/08/04 06:34:24;;;;;;;1.83;1.10;;;24.50;45.60;;;;;;5012268;28;20265;-67
2021/08/04 06:36:51;;;;;;;1.20;1.10;;;24.50;45.60;;;;;;5011000;28;20290;-68
2021/08/04 06:39:17;;;;;;;1.20;1.00;;;24.50;45.60;;;;;;5011850;28;20290;-68
2021/08/04 06:41:44;;;;;;;1.08;1.00;;;24.50;45.60;;;;;;5011282;28;20207;-68
2021/08/04 06:44:10;;;;;;;1.08;0.98;;;24.50;45.60;;;;;;5010955;28;20283;-68
2021/08/04 06:46:37;;;;;;;1.00;1.00;;;24.50;45.60;;;;;;5011580;28;20282;-67
2021/08/04 06:49:03;;;;;;;1.50;1.20;;;24.50;45.60;;;;;;5008909;28;20321;-69
2021/08/04 06:51:30;;;;;;;1.08;1.08;;;24.50;45.50;;;;;;5011390;28;20287;-68
2021/08/04 06:53:56;;;;;;;1.38;1.13;;;24.50;45.50;;;;;;5011891;28;20294;-68
2021/08/04 06:56:22;;;;;;;1.10;1.00;;;24.50;45.50;;;;;;5011788;28;20382;-68
2021/08/04 06:58:49;;;;;;;1.60;1.15;;;24.50;45.60;;;;;;5011167;28;20290;-68
2021/08/04 07:01:15;;;;;;;1.17;1.10;;;24.50;45.90;;;;;;5010763;28;20276;-68
2021/08/04 07:03:42;;;;;;;1.17;1.08;;;24.50;46.00;;;;;;5012394;28;20298;-68
2021/08/04 07:06:09;;;;;;;1.08;1.08;;;24.50;46.20;;;;;;5010495;28;20301;-68
2021/08/04 07:08:35;;;;;;;2.13;1.30;;;24.50;46.30;;;;;;5010984;28;20210;-67
2021/08/04 07:11:02;;;;;;;1.48;1.00;;;24.50;46.40;;;;;;5007727;28;20226;-73
2021/08/04 07:13:28;;;;;;;1.98;1.20;;;24.60;46.50;;;;;;5010944;28;20206;-65
2021/08/04 07:15:55;;;;;;;2.03;1.20;;;24.60;46.50;;;;;;5010472;28;20659;-65
2021/08/04 07:18:21;;;;;;;2.17;1.45;;;24.60;46.20;;;;;;5006145;28;20311;-68
2021/08/04 07:20:47;;;;;;;4.13;1.42;;;24.60;46.40;;;;;;5010730;28;20207;-66
2021/08/04 07:23:14;;;;;;;1.38;1.27;;;24.60;46.10;;;;;;5012397;28;20211;-67
2021/08/04 07:25:41;;;;;;;3.22;1.30;;;24.60;45.80;;;;;;5010298;28;20652;-66
2021/08/04 07:28:07;;;;;;;2.08;1.20;;;24.60;45.60;;;;;;5009959;28;20565;-66
2021/08/04 07:30:34;;;;;;;3.70;1.60;;;24.60;45.50;;;;;;5010519;28;20663;-62
2021/08/04 07:33:00;;;;;;;2.13;1.50;;;24.60;45.40;;;;;;5015842;28;20230;-63
2021/08/04 07:35:27;;;;;;;8.25;1.80;;;24.60;46.00;;;;;;5020161;28;20232;-68
2021/08/04 07:37:53;;;;;;;2.85;1.50;;;24.60;47.40;;;;;;5016156;28;20278;-62
2021/08/04 07:40:19;;;;;;;3.05;1.48;;;24.60;48.20;;;;;;5017055;28;20286;-66
2021/08/04 07:42:46;;;;;;;6.60;1.60;;;24.60;47.70;;;;;;5006571;28;20203;-64
2021/08/04 07:45:12;;;;;;;3.88;1.83;;;24.50;48.10;;;;;;4997152;28;20223;-64
2021/08/04 07:47:39;;;;;;;8.13;2.10;;;24.60;48.20;;;;;;5011573;28;20283;-66
2021/08/04 07:50:05;;;;;;;7.32;2.60;;;24.60;48.20;;;;;;5010555;28;20745;-70
2021/08/04 07:52:32;;;;;;;7.97;2.15;;;24.50;48.10;;;;;;5011187;28;20305;-70
2021/08/04 07:54:58;;;;;;;2.72;1.73;;;24.20;45.80;;;;;;5008930;28;20233;-70
2021/08/04 07:57:25;;;;;;;2.55;1.70;;;23.80;44.10;;;;;;5009627;28;20195;-70
2021/08/04 07:59:51;;;;;;;1.33;1.20;;;23.40;42.40;;;;;;5010540;28;20257;-70
2021/08/04 08:02:18;;;;;;;1.50;1.30;;;22.40;41.50;;;;;;5006535;28;20290;-69
2021/08/04 08:04:44;;;;;;;1.77;1.40;;;22.20;43.00;;;;;;5009544;28;20306;-69
2021/08/04 08:07:11;;;;;;;1.38;1.17;;;21.80;42.60;;;;;;5009263;28;20211;-70
2021/08/04 08:09:37;;;;;;;3.05;1.40;;;22.20;42.90;;;;;;5009149;28;20240;-70
2021/08/04 08:12:04;;;;;;;1.50;1.27;;;22.60;43.10;;;;;;5010819;28;20287;-70
2021/08/04 08:14:31;;;;;;;1.35;1.20;;;22.70;42.20;;;;;;5009488;28;20310;-70
2021/08/04 08:16:58;;;;;;;2.00;1.50;;;22.00;41.10;;;;;;5009556;28;20199;-69
2021/08/04 08:19:24;;;;;;;1.40;1.30;;;21.20;42.10;;;;;;5010774;28;20203;-70
2021/08/04 08:21:51;;;;;;;2.25;1.45;;;21.40;42.40;;;;;;5007888;28;20628;-70
2021/08/04 08:24:17;;;;;;;2.72;1.48;;;21.50;42.60;;;;;;5008340;28;20585;-70
2021/08/04 08:26:43;;;;;;;1.40;1.27;;;21.30;43.40;;;;;;5009413;28;20511;-71
2021/08/04 08:29:10;;;;;;;1.40;1.30;;;21.80;42.50;;;;;;5010473;28;20286;-69
2021/08/04 08:31:36;;;;;;;1.42;1.20;;;21.80;41.00;;;;;;5009792;28;20199;-70
2021/08/04 08:34:03;;;;;;;1.42;1.30;;;21.80;42.40;;;;;;5009057;28;20231;-70
2021/08/04 08:36:30;;;;;;;1.95;1.40;;;21.80;41.70;;;;;;5009800;28;20213;-65
2021/08/04 08:38:56;;;;;;;1.30;1.20;;;21.80;42.40;;;;;;5006717;28;20207;-60
2021/08/04 08:41:23;;;;;;;1.40;1.30;;;22.30;42.00;;;;;;5010185;28;20221;-60
2021/08/04 08:43:49;;;;;;;1.27;1.17;;;22.70;42.80;;;;;;5009573;28;20225;-67
2021/08/04 08:46:16;;;;;;;1.25;1.15;;;22.90;42.70;;;;;;5010012;28;20282;-69
2021/08/04 08:48:43;;;;;;;1.30;1.20;;;23.10;42.70;;;;;;5009399;28;20207;-67
2021/08/04 08:51:10;;;;;;;1.48;1.13;;;23.20;42.80;;;;;;5007584;28;20238;-65
2021/08/04 08:53:38;;;;;;;1.42;1.33;;;23.30;42.90;;;;;;5011943;28;20309;-65
2021/08/04 08:56:04;;;;;;;3.30;1.23;;;23.50;43.20;;;;;;5012528;28;20651;-65
2021/08/04 08:58:31;;;;;;;1.52;1.08;;;23.60;43.20;;;;;;5028057;28;20216;-65
2021/08/04 09:00:57;;;;;;;1.30;1.20;;;23.70;43.80;;;;;;5008779;28;20290;-65
2021/08/04 09:03:24;;;;;;;1.25;1.15;;;23.70;43.80;;;;;;5016596;28;20369;-72
2021/08/04 09:05:50;;;;;;;1.30;1.20;;;23.70;43.90;;;;;;5014214;28;20203;-72
2021/08/04 09:08:17;;;;;;;1.10;1.05;;;23.70;43.80;;;;;;5025623;28;20285;-72
2021/08/04 09:10:44;;;;;;;1.08;1.02;;;23.80;43.90;;;;;;5011192;28;20286;-65
2021/08/04 09:13:11;;;;;;;1.30;1.15;;;23.80;43.90;;;;;;5010729;28;20258;-65
2021/08/04 09:15:37;;;;;;;1.35;1.15;;;23.80;43.90;;;;;;5010547;28;20199;-65
2021/08/04 09:18:04;;;;;;;1.58;1.17;;;23.80;43.80;;;;;;5011355;28;20207;-65
2021/08/04 09:20:30;;;;;;;1.63;1.20;;;23.80;44.10;;;;;;5010258;28;20237;-65
2021/08/04 09:22:57;;;;;;;1.33;1.20;;;23.80;44.10;;;;;;5009034;28;20676;-65
2021/08/04 09:25:25;;;;;;;1.20;1.10;;;23.80;44.10;;;;;;5010253;28;20254;-65
2021/08/04 09:27:51;;;;;;;1.17;1.10;;;23.90;43.90;;;;;;5009943;28;20207;-65
2021/08/04 09:30:18;;;;;;;1.00;1.00;;;23.80;43.60;;;;;;5009528;28;20578;-65
2021/08/04 09:32:44;;;;;;;1.20;1.10;;;23.90;44.10;;;;;;5010186;28;20195;-60
2021/08/04 09:35:11;;;;;;;1.30;1.20;;;23.90;43.90;;;;;;5025520;28;20250;-59
2021/08/04 09:37:37;;;;;;;1.50;1.10;;;23.90;43.50;;;;;;5012804;28;20635;-60
2021/08/04 09:40:04;;;;;;;1.48;1.38;;;23.90;43.50;;;;;;5012064;28;20294;-60
2021/08/04 09:42:30;;;;;;;1.85;1.13;;;24.00;43.80;;;;;;5013135;28;20270;-67
2021/08/04 09:44:57;;;;;;;1.50;1.10;;;24.00;44.00;;;;;;5032717;28;20309;-65
2021/08/04 09:47:23;;;;;;;2.55;1.20;;;24.00;44.10;;;;;;5013578;28;20207;-67
2021/08/04 09:49:49;;;;;;;1.30;1.20;;;24.00;42.20;;;;;;5017866;28;20219;-69
2021/08/04 09:52:16;;;;;;;1.80;1.10;;;23.60;41.70;;;;;;5013672;28;20286;-65
2021/08/04 09:54:42;;;;;;;1.67;1.58;;;23.70;42.10;;;;;;5011767;28;20226;-62
2021/08/04 09:57:09;;;;;;;1.83;1.27;;;23.80;42.50;;;;;;5013371;28;20295;-61
2021/08/04 09:59:35;;;;;;;1.40;1.30;;;23.90;42.80;;;;;;5011215;28;20916;-73
2021/08/04 10:02:02;;;;;;;1.40;1.30;;;24.00;42.90;;;;;;5013806;28;20295;-73
2021/08/04 10:04:29;;;;;;;2.28;1.30;;;24.00;43.00;;;;;;5012371;28;20219;-74
2021/08/04 10:06:55;;;;;;;1.45;1.23;;;24.00;43.30;;;;;;5018741;28;20627;-74
2021/08/04 10:09:22;;;;;;;1.60;1.38;;;24.00;43.50;;;;;;5019145;28;20205;-73
2021/08/04 10:11:48;;;;;;;2.15;1.30;;;24.00;43.40;;;;;;5001735;28;20231;-73
2021/08/04 10:14:16;;;;;;;1.27;1.17;;;24.00;43.50;;;;;;5011777;28;20303;-74
2021/08/04 10:16:42;;;;;;;1.35;1.20;;;24.00;43.60;;;;;;5011147;28;20220;-73
2021/08/04 10:19:09;;;;;;;2.25;1.30;;;24.00;43.60;;;;;;5013734;28;20237;-73
2021/08/04 10:21:35;;;;;;;1.30;1.20;;;24.00;43.20;;;;;;5011600;28;20630;-73
2021/08/04 10:24:02;;;;;;;1.17;1.10;;;24.10;43.10;;;;;;5012524;28;20231;-71
2021/08/04 10:26:28;;;;;;;1.30;1.20;;;24.00;43.20;;;;;;5012073;28;20721;-73
2021/08/04 10:28:57;;;;;;;1.30;1.20;;;24.10;43.20;;;;;;5012482;28;20630;-74
2021/08/04 10:31:23;;;;;;;1.35;1.10;;;24.10;43.30;;;;;;5011052;28;20409;-73
2021/08/04 10:33:50;;;;;;;1.42;1.05;;;24.00;43.20;;;;;;5012072;28;20672;-73
2021/08/04 10:36:16;;;;;;;1.30;1.20;;;24.10;43.30;;;;;;5011667;28;20651;-73
2021/08/04 10:38:43;;;;;;;0.90;0.90;;;24.10;43.60;;;;;;5011682;28;20226;-73
2021/08/04 10:41:09;;;;;;;1.20;1.10;;;24.10;43.60;;;;;;5012177;28;20227;-73
2021/08/04 10:43:35;;;;;;;1.17;1.08;;;24.10;43.40;;;;;;5010981;28;20310;-74
2021/08/04 10:46:02;;;;;;;1.92;1.38;;;24.00;44.00;;;;;;5012175;28;20238;-74
2021/08/04 10:48:29;;;;;;;1.88;1.45;;;24.10;43.10;;;;;;5008284;28;20203;-74
2021/08/04 10:50:55;;;;;;;1.50;1.25;;;24.10;43.00;;;;;;5007115;28;20230;-74
2021/08/04 10:53:22;;;;;;;1.52;1.25;;;24.10;43.00;;;;;;5012903;28;20246;-74
2021/08/04 10:55:49;;;;;;;2.30;1.20;;;24.10;43.10;;;;;;5010908;28;20206;-74
2021/08/04 10:58:16;;;;;;;1.45;1.35;;;24.00;42.90;;;;;;5012656;28;20198;-74
2021/08/04 11:00:42;;;;;;;1.77;1.27;;;24.10;43.10;;;;;;5011065;28;20199;-71
2021/08/04 11:03:09;;;;;;;1.42;1.33;;;24.10;43.40;;;;;;5012457;28;20222;-70
2021/08/04 11:05:35;;;;;;;1.23;1.10;;;24.10;43.00;;;;;;5042386;22;20257;-61
2021/08/04 11:08:02;;;;;;;2.83;1.45;;;24.10;43.00;;;;;;5046276;28;20202;-60
2021/08/04 11:10:28;;;;;;;1.65;1.10;;;24.20;43.10;;;;;;5050987;28;20239;-64
2021/08/04 11:12:55;;;;;;;3.22;2.05;;;24.20;43.10;;;;;;5057091;28;20301;-62
2021/08/04 11:15:21;;;;;;;35.88;26.17;;;24.30;43.20;;;;;;5033038;28;20316;-64
2021/08/04 11:17:48;;;;;;;88.15;66.22;;;24.30;43.20;;;;;;5035750;28;20297;-61
2021/08/04 11:20:14;;;;;;;74.80;59.13;;;24.30;42.80;;;;;;5038183;28;20692;-61
2021/08/04 11:22:41;;;;;;;62.90;49.25;;;24.20;42.50;;;;;;5033090;28;20238;-61
2021/08/04 11:25:08;;;;;;;44.03;35.63;;;24.20;42.20;;;;;;5043674;28;20305;-61
2021/08/04 11:27:34;;;;;;;37.47;30.58;;;24.20;41.90;;;;;;5036418;28;20201;-61
2021/08/04 11:30:01;;;;;;;33.15;26.55;;;24.10;41.50;;;;;;5034199;28;20209;-61
2021/08/04 11:32:28;;;;;;;30.92;23.88;;;24.10;41.50;;;;;;5031317;28;20560;-62
2021/08/04 11:34:54;;;;;;;23.80;17.60;;;24.20;42.00;;;;;;5038699;28;20277;-68
2021/08/04 11:37:21;;;;;;;22.35;17.23;;;24.20;41.80;;;;;;5043267;28;20210;-59
2021/08/04 11:39:47;;;;;;;23.10;16.42;;;24.20;41.70;;;;;;5033858;28;20280;-55
2021/08/04 11:42:14;;;;;;;21.40;16.45;;;24.30;41.60;;;;;;5043060;28;20362;-55
2021/08/04 11:44:40;;;;;;;17.30;13.40;;;24.20;41.20;;;;;;5044275;28;20626;-52
2021/08/04 11:47:09;;;;;;;18.45;13.45;;;24.30;41.30;;;;;;5047259;28;20241;-65
2021/08/04 11:49:36;;;;;;;16.55;13.27;;;24.30;41.30;;;;;;5042068;28;20732;-63
2021/08/04 11:52:02;;;;;;;20.73;15.15;;;24.30;41.70;;;;;;5030928;28;20238;-59
2021/08/04 11:54:29;;;;;;;20.77;14.35;;;24.30;42.10;;;;;;5035647;28;20317;-59
2021/08/04 11:56:55;;;;;;;19.45;13.38;;;24.30;42.30;;;;;;5037482;28;20293;-51
2021/08/04 11:59:22;;;;;;;19.38;11.60;;;24.40;42.30;;;;;;5045698;28;20244;-54
2021/08/04 12:01:48;;;;;;;4.78;3.80;;;24.40;42.00;;;;;;5043320;28;20247;-54
2021/08/04 12:04:15;;;;;;;3.20;2.10;;;24.30;40.20;;;;;;5010994;28;20318;-51
2021/08/04 12:06:41;;;;;;;2.60;2.00;;;24.00;39.10;;;;;;5029944;28;20228;-52
2021/08/04 12:09:08;;;;;;;3.60;2.30;;;24.00;39.30;;;;;;5039999;28;20234;-48
2021/08/04 12:11:34;;;;;;;2.72;1.90;;;24.00;39.50;;;;;;5031934;28;20245;-51
2021/08/04 12:14:01;;;;;;;4.03;2.10;;;23.90;39.40;;;;;;5029720;28;20313;-47
2021/08/04 12:16:28;;;;;;;1.75;1.60;;;23.90;39.10;;;;;;5034895;28;20576;-45
2021/08/04 12:18:54;;;;;;;1.55;1.30;;;23.70;38.80;;;;;;5032490;28;20202;-47
2021/08/04 12:21:21;;;;;;;1.48;1.38;;;23.70;39.20;;;;;;5033736;28;20208;-46
2021/08/04 12:23:47;;;;;;;2.25;1.50;;;23.80;39.00;;;;;;5040820;28;20296;-45
2021/08/04 12:26:14;;;;;;;4.43;1.98;;;23.90;39.00;;;;;;5029852;28;20238;-47
2021/08/04 12:28:40;;;;;;;2.60;1.88;;;23.90;39.10;;;;;;5030299;28;20258;-45
2021/08/04 12:31:07;;;;;;;3.45;2.17;;;24.00;39.20;;;;;;5030201;28;20321;-45
2021/08/04 12:33:45;;;;;;;2.35;1.90;;;24.00;39.40;;;;;;5038793;28;20721;-45
2021/08/04 12:36:22;;;;;;;3.25;2.10;;;24.00;39.50;;;;;;5038015;28;20282;-45
2021/08/04 12:38:51;;;;;;;2.67;2.10;;;24.10;39.80;;;;;;5031233;28;20232;-45
2021/08/04 12:41:18;;;;;;;2.92;2.30;;;24.10;40.00;;;;;;5029714;28;20202;-51